sensor_id;sensor_type;location;lat;lon;timestamp;temperature;humidity
9057;DHT22;4563;54.756;9.400;2022-09-27T00:00:34;14.60;77.60
9057;DHT22;4563;54.756;9.400;2022-09-27T00:03:01;14.60;77.70
9057;DHT22;4563;54.756;9.400;2022-09-27T00:05:28;14.50;77.60
9057;DHT22;4563;54.756;9.400;2022-09-27T00:07:55;14.60;77.70
9057;DHT22;4563;54.756;9.400;2022-09-27T00:10:23;14.50;78.20
9057;DHT22;4563;54.756;9.400;2022-09-27T00:12:51;14.50;77.40
9057;DHT22;4563;54.756;9.400;2022-09-27T00:15:19;14.50;77.40
9057;DHT22;4563;54.756;9.400;2022-09-27T00:17:46;14.50;77.40
9057;DHT22;4563;54.756;9.400;2022-09-27T00:20:16;14.50;77.50
9057;DHT22;4563;54.756;9.400;2022-09-27T00:22:44;14.50;77.40
9057;DHT22;4563;54.756;9.400;2022-09-27T00:25:13;14.50;77.20
9057;DHT22;4563;54.756;9.400;2022-09-27T00:27:40;14.50;77.50
9057;DHT22;4563;54.756;9.400;2022-09-27T00:30:10;14.50;77.40
9057;DHT22;4563;54.756;9.400;2022-09-27T00:32:37;14.50;77.40
9057;DHT22;4563;54.756;9.400;2022-09-27T00:35:05;14.50;77.30
9057;DHT22;4563;54.756;9.400;2022-09-27T00:37:32;14.50;77.40
9057;DHT22;4563;54.756;9.400;2022-09-27T00:39:59;14.50;77.30
9057;DHT22;4563;54.756;9.400;2022-09-27T00:42:26;14.50;77.40
9057;DHT22;4563;54.756;9.400;2022-09-27T00:45:16;14.40;77.30
9057;DHT22;4563;54.756;9.400;2022-09-27T00:47:50;14.50;77.10
9057;DHT22;4563;54.756;9.400;2022-09-27T00:50:23;14.40;77.20
9057;DHT22;4563;54.756;9.400;2022-09-27T00:52:59;14.40;77.30
9057;DHT22;4563;54.756;9.400;2022-09-27T00:55:29;14.40;77.30
9057;DHT22;4563;54.756;9.400;2022-09-27T00:57:58;14.40;77.30
9057;DHT22;4563;54.756;9.400;2022-09-27T01:00:27;14.40;77.20
9057;DHT22;4563;54.756;9.400;2022-09-27T01:02:55;14.40;77.20
9057;DHT22;4563;54.756;9.400;2022-09-27T01:05:24;14.40;77.10
9057;DHT22;4563;54.756;9.400;2022-09-27T01:07:53;14.40;77.30
9057;DHT22;4563;54.756;9.400;2022-09-27T01:10:28;14.40;77.30
9057;DHT22;4563;54.756;9.400;2022-09-27T01:13:04;14.40;77.30
9057;DHT22;4563;54.756;9.400;2022-09-27T01:15:41;14.40;77.20
9057;DHT22;4563;54.756;9.400;2022-09-27T01:18:16;14.40;77.20
9057;DHT22;4563;54.756;9.400;2022-09-27T01:27:16;14.40;77.00
9057;DHT22;4563;54.756;9.400;2022-09-27T01:29:59;14.30;76.90
9057;DHT22;4563;54.756;9.400;2022-09-27T01:32:33;14.30;77.00
9057;DHT22;4563;54.756;9.400;2022-09-27T01:35:03;14.30;77.10
9057;DHT22;4563;54.756;9.400;2022-09-27T01:37:37;14.30;77.10
9057;DHT22;4563;54.756;9.400;2022-09-27T01:40:10;14.30;77.10
9057;DHT22;4563;54.756;9.400;2022-09-27T01:42:47;14.30;77.10
9057;DHT22;4563;54.756;9.400;2022-09-27T01:45:20;14.20;77.00
9057;DHT22;4563;54.756;9.400;2022-09-27T01:47:52;14.30;77.10
9057;DHT22;4563;54.756;9.400;2022-09-27T01:50:23;14.30;77.20
9057;DHT22;4563;54.756;9.400;2022-09-27T01:52:56;14.30;77.10
9057;DHT22;4563;54.756;9.400;2022-09-27T01:55:28;14.20;77.10
9057;DHT22;4563;54.756;9.400;2022-09-27T01:57:59;14.20;77.10
9057;DHT22;4563;54.756;9.400;2022-09-27T02:00:28;14.20;77.10
9057;DHT22;4563;54.756;9.400;2022-09-27T02:02:59;14.20;77.10
9057;DHT22;4563;54.756;9.400;2022-09-27T02:05:30;14.20;77.10
9057;DHT22;4563;54.756;9.400;2022-09-27T02:07:59;14.20;77.20
9057;DHT22;4563;54.756;9.400;2022-09-27T02:10:30;14.20;77.20
9057;DHT22;4563;54.756;9.400;2022-09-27T02:13:05;14.20;77.20
9057;DHT22;4563;54.756;9.400;2022-09-27T02:15:42;14.20;77.20
9057;DHT22;4563;54.756;9.400;2022-09-27T02:18:17;14.20;77.20
9057;DHT22;4563;54.756;9.400;2022-09-27T02:20:49;14.20;77.10
9057;DHT22;4563;54.756;9.400;2022-09-27T02:23:22;14.20;77.10
9057;DHT22;4563;54.756;9.400;2022-09-27T02:25:54;14.20;77.20
9057;DHT22;4563;54.756;9.400;2022-09-27T02:28:26;14.20;77.20
9057;DHT22;4563;54.756;9.400;2022-09-27T02:30:54;14.20;77.30
9057;DHT22;4563;54.756;9.400;2022-09-27T02:33:26;14.20;77.30
9057;DHT22;4563;54.756;9.400;2022-09-27T02:35:55;14.20;77.30
9057;DHT22;4563;54.756;9.400;2022-09-27T02:38:23;14.20;77.30
9057;DHT22;4563;54.756;9.400;2022-09-27T02:40:50;14.10;77.20
9057;DHT22;4563;54.756;9.400;2022-09-27T02:43:18;14.20;77.30
9057;DHT22;4563;54.756;9.400;2022-09-27T02:46:11;14.20;77.40
9057;DHT22;4563;54.756;9.400;2022-09-27T02:48:48;14.20;77.10
9057;DHT22;4563;54.756;9.400;2022-09-27T02:51:36;14.20;77.30
9057;DHT22;4563;54.756;9.400;2022-09-27T02:54:14;14.20;77.20
9057;DHT22;4563;54.756;9.400;2022-09-27T02:56:53;14.20;77.30
9057;DHT22;4563;54.756;9.400;2022-09-27T02:59:30;14.20;77.30
9057;DHT22;4563;54.756;9.400;2022-09-27T03:02:05;14.10;77.20
9057;DHT22;4563;54.756;9.400;2022-09-27T03:04:39;14.20;77.30
9057;DHT22;4563;54.756;9.400;2022-09-27T03:07:09;14.20;77.20
9057;DHT22;4563;54.756;9.400;2022-09-27T03:09:42;14.20;77.20
9057;DHT22;4563;54.756;9.400;2022-09-27T03:12:10;14.20;77.20
9057;DHT22;4563;54.756;9.400;2022-09-27T03:14:37;14.20;77.20
9057;DHT22;4563;54.756;9.400;2022-09-27T03:17:04;14.10;77.00
9057;DHT22;4563;54.756;9.400;2022-09-27T03:19:32;14.10;77.00
9057;DHT22;4563;54.756;9.400;2022-09-27T03:22:00;14.10;77.70
9057;DHT22;4563;54.756;9.400;2022-09-27T03:24:27;14.10;76.90
9057;DHT22;4563;54.756;9.400;2022-09-27T03:26:54;14.10;76.90
9057;DHT22;4563;54.756;9.400;2022-09-27T03:29:21;14.10;76.90
9057;DHT22;4563;54.756;9.400;2022-09-27T03:31:47;14.10;76.90
9057;DHT22;4563;54.756;9.400;2022-09-27T03:34:14;14.10;76.90
9057;DHT22;4563;54.756;9.400;2022-09-27T03:36:41;14.10;76.90
9057;DHT22;4563;54.756;9.400;2022-09-27T03:39:11;14.00;76.80
9057;DHT22;4563;54.756;9.400;2022-09-27T03:41:38;14.00;76.70
9057;DHT22;4563;54.756;9.400;2022-09-27T03:44:05;14.00;76.70
9057;DHT22;4563;54.756;9.400;2022-09-27T03:46:33;14.00;76.70
9057;DHT22;4563;54.756;9.400;2022-09-27T03:49:00;14.00;76.70
9057;DHT22;4563;54.756;9.400;2022-09-27T03:51:27;14.00;76.70
9057;DHT22;4563;54.756;9.400;2022-09-27T03:53:54;14.00;76.70
9057;DHT22;4563;54.756;9.400;2022-09-27T03:56:22;14.00;76.70
9057;DHT22;4563;54.756;9.400;2022-09-27T03:58:49;14.00;76.70
9057;DHT22;4563;54.756;9.400;2022-09-27T04:01:16;14.00;76.70
9057;DHT22;4563;54.756;9.400;2022-09-27T04:03:43;14.00;76.80
9057;DHT22;4563;54.756;9.400;2022-09-27T04:06:10;13.90;76.60
9057;DHT22;4563;54.756;9.400;2022-09-27T04:08:37;13.90;76.70
9057;DHT22;4563;54.756;9.400;2022-09-27T04:11:04;14.00;76.80
9057;DHT22;4563;54.756;9.400;2022-09-27T04:13:33;14.00;76.90
9057;DHT22;4563;54.756;9.400;2022-09-27T04:16:00;13.90;76.70
9057;DHT22;4563;54.756;9.400;2022-09-27T04:18:28;14.00;76.80
9057;DHT22;4563;54.756;9.400;2022-09-27T04:20:55;13.90;76.90
9057;DHT22;4563;54.756;9.400;2022-09-27T04:23:22;13.90;76.70
9057;DHT22;4563;54.756;9.400;2022-09-27T04:25:49;13.90;76.70
9057;DHT22;4563;54.756;9.400;2022-09-27T04:28:16;13.90;76.70
9057;DHT22;4563;54.756;9.400;2022-09-27T04:30:44;13.90;76.70
9057;DHT22;4563;54.756;9.400;2022-09-27T04:33:11;13.90;76.60
9057;DHT22;4563;54.756;9.400;2022-09-27T04:35:38;13.90;76.60
9057;DHT22;4563;54.756;9.400;2022-09-27T04:38:22;13.90;76.70
9057;DHT22;4563;54.756;9.400;2022-09-27T04:40:49;13.90;76.70
9057;DHT22;4563;54.756;9.400;2022-09-27T04:43:17;13.90;76.70
9057;DHT22;4563;54.756;9.400;2022-09-27T04:45:45;13.90;76.70
9057;DHT22;4563;54.756;9.400;2022-09-27T04:48:12;13.90;76.80
9057;DHT22;4563;54.756;9.400;2022-09-27T04:50:39;13.90;76.80
9057;DHT22;4563;54.756;9.400;2022-09-27T04:53:06;13.90;77.50
9057;DHT22;4563;54.756;9.400;2022-09-27T04:55:33;13.80;76.70
9057;DHT22;4563;54.756;9.400;2022-09-27T04:58:00;13.90;76.80
9057;DHT22;4563;54.756;9.400;2022-09-27T05:00:27;13.90;76.80
9057;DHT22;4563;54.756;9.400;2022-09-27T05:02:56;13.80;76.70
9057;DHT22;4563;54.756;9.400;2022-09-27T05:05:23;13.80;76.70
9057;DHT22;4563;54.756;9.400;2022-09-27T05:07:50;13.80;76.70
9057;DHT22;4563;54.756;9.400;2022-09-27T05:10:17;13.80;76.80
9057;DHT22;4563;54.756;9.400;2022-09-27T05:12:44;13.80;76.80
9057;DHT22;4563;54.756;9.400;2022-09-27T05:15:11;13.80;76.80
9057;DHT22;4563;54.756;9.400;2022-09-27T05:17:37;13.80;76.80
9057;DHT22;4563;54.756;9.400;2022-09-27T05:20:06;13.80;76.80
9057;DHT22;4563;54.756;9.400;2022-09-27T05:22:34;13.80;76.80
9057;DHT22;4563;54.756;9.400;2022-09-27T05:25:02;13.80;76.80
9057;DHT22;4563;54.756;9.400;2022-09-27T05:27:29;13.80;76.80
9057;DHT22;4563;54.756;9.400;2022-09-27T05:29:56;13.80;76.80
9057;DHT22;4563;54.756;9.400;2022-09-27T05:32:25;13.80;76.90
9057;DHT22;4563;54.756;9.400;2022-09-27T05:34:52;13.80;76.80
9057;DHT22;4563;54.756;9.400;2022-09-27T05:37:20;13.80;76.90
9057;DHT22;4563;54.756;9.400;2022-09-27T05:39:47;13.80;76.90
9057;DHT22;4563;54.756;9.400;2022-09-27T05:42:14;13.80;76.90
9057;DHT22;4563;54.756;9.400;2022-09-27T05:44:42;13.80;76.90
9057;DHT22;4563;54.756;9.400;2022-09-27T05:47:13;13.80;76.90
9057;DHT22;4563;54.756;9.400;2022-09-27T05:49:40;13.80;77.00
9057;DHT22;4563;54.756;9.400;2022-09-27T05:52:07;13.80;77.00
9057;DHT22;4563;54.756;9.400;2022-09-27T05:54:35;13.70;76.90
9057;DHT22;4563;54.756;9.400;2022-09-27T05:57:02;13.80;77.00
9057;DHT22;4563;54.756;9.400;2022-09-27T05:59:31;13.80;77.00
9057;DHT22;4563;54.756;9.400;2022-09-27T06:01:58;13.70;76.80
9057;DHT22;4563;54.756;9.400;2022-09-27T06:04:26;13.70;76.90
9057;DHT22;4563;54.756;9.400;2022-09-27T06:06:53;13.70;76.90
9057;DHT22;4563;54.756;9.400;2022-09-27T06:09:23;13.70;76.90
9057;DHT22;4563;54.756;9.400;2022-09-27T06:11:53;13.70;77.00
9057;DHT22;4563;54.756;9.400;2022-09-27T06:14:22;13.70;77.00
9057;DHT22;4563;54.756;9.400;2022-09-27T06:16:49;13.70;77.00
9057;DHT22;4563;54.756;9.400;2022-09-27T06:19:16;13.70;77.00
9057;DHT22;4563;54.756;9.400;2022-09-27T06:21:43;13.70;77.00
9057;DHT22;4563;54.756;9.400;2022-09-27T06:24:09;13.70;77.10
9057;DHT22;4563;54.756;9.400;2022-09-27T06:26:37;13.70;77.10
9057;DHT22;4563;54.756;9.400;2022-09-27T06:29:05;13.70;77.00
9057;DHT22;4563;54.756;9.400;2022-09-27T06:31:32;13.80;77.20
9057;DHT22;4563;54.756;9.400;2022-09-27T06:33:59;13.80;77.20
9057;DHT22;4563;54.756;9.400;2022-09-27T06:36:26;13.70;77.10
9057;DHT22;4563;54.756;9.400;2022-09-27T06:38:53;13.80;77.20
9057;DHT22;4563;54.756;9.400;2022-09-27T06:41:20;13.80;77.20
9057;DHT22;4563;54.756;9.400;2022-09-27T06:43:47;13.80;77.20
9057;DHT22;4563;54.756;9.400;2022-09-27T06:46:15;13.80;77.30
9057;DHT22;4563;54.756;9.400;2022-09-27T06:48:42;13.80;77.30
9057;DHT22;4563;54.756;9.400;2022-09-27T06:51:09;13.80;77.30
9057;DHT22;4563;54.756;9.400;2022-09-27T06:53:36;13.80;77.20
9057;DHT22;4563;54.756;9.400;2022-09-27T06:56:03;13.70;77.20
9057;DHT22;4563;54.756;9.400;2022-09-27T06:58:30;13.80;77.30
9057;DHT22;4563;54.756;9.400;2022-09-27T07:01:15;13.80;77.30
9057;DHT22;4563;54.756;9.400;2022-09-27T07:03:42;13.80;77.40
9057;DHT22;4563;54.756;9.400;2022-09-27T07:06:15;13.80;77.40
9057;DHT22;4563;54.756;9.400;2022-09-27T07:08:43;13.80;77.40
9057;DHT22;4563;54.756;9.400;2022-09-27T07:11:10;13.80;77.30
9057;DHT22;4563;54.756;9.400;2022-09-27T07:13:37;13.80;77.40
9057;DHT22;4563;54.756;9.400;2022-09-27T07:16:09;13.80;77.40
9057;DHT22;4563;54.756;9.400;2022-09-27T07:18:39;13.80;77.50
9057;DHT22;4563;54.756;9.400;2022-09-27T07:21:06;13.80;77.50
9057;DHT22;4563;54.756;9.400;2022-09-27T07:23:34;13.80;77.50
9057;DHT22;4563;54.756;9.400;2022-09-27T07:26:01;13.80;77.50
9057;DHT22;4563;54.756;9.400;2022-09-27T07:28:32;13.80;77.60
9057;DHT22;4563;54.756;9.400;2022-09-27T07:30:59;13.80;77.50
9057;DHT22;4563;54.756;9.400;2022-09-27T07:33:27;13.80;77.60
9057;DHT22;4563;54.756;9.400;2022-09-27T07:35:55;13.80;77.60
9057;DHT22;4563;54.756;9.400;2022-09-27T07:38:22;13.80;77.60
9057;DHT22;4563;54.756;9.400;2022-09-27T07:40:49;13.80;77.60
9057;DHT22;4563;54.756;9.400;2022-09-27T07:43:16;13.80;77.60
9057;DHT22;4563;54.756;9.400;2022-09-27T07:45:44;13.80;77.60
9057;DHT22;4563;54.756;9.400;2022-09-27T07:48:13;13.80;77.70
9057;DHT22;4563;54.756;9.400;2022-09-27T07:50:40;13.90;77.90
9057;DHT22;4563;54.756;9.400;2022-09-27T07:53:08;13.90;78.50
9057;DHT22;4563;54.756;9.400;2022-09-27T07:55:38;13.90;77.90
9057;DHT22;4563;54.756;9.400;2022-09-27T07:58:06;13.90;77.90
9057;DHT22;4563;54.756;9.400;2022-09-27T08:00:34;13.90;77.90
9057;DHT22;4563;54.756;9.400;2022-09-27T08:03:05;13.90;78.00
9057;DHT22;4563;54.756;9.400;2022-09-27T08:05:33;13.90;78.00
9057;DHT22;4563;54.756;9.400;2022-09-27T08:08:01;13.90;78.00
9057;DHT22;4563;54.756;9.400;2022-09-27T08:10:30;13.90;78.10
9057;DHT22;4563;54.756;9.400;2022-09-27T08:12:57;13.90;78.10
9057;DHT22;4563;54.756;9.400;2022-09-27T08:15:24;13.90;78.10
9057;DHT22;4563;54.756;9.400;2022-09-27T08:17:53;13.90;78.10
9057;DHT22;4563;54.756;9.400;2022-09-27T08:20:20;13.90;78.10
9057;DHT22;4563;54.756;9.400;2022-09-27T08:22:47;13.90;78.10
9057;DHT22;4563;54.756;9.400;2022-09-27T08:25:14;14.00;78.20
9057;DHT22;4563;54.756;9.400;2022-09-27T08:27:42;14.00;78.30
9057;DHT22;4563;54.756;9.400;2022-09-27T08:30:10;14.00;78.30
9057;DHT22;4563;54.756;9.400;2022-09-27T08:32:37;14.00;78.50
9057;DHT22;4563;54.756;9.400;2022-09-27T08:35:05;14.00;78.40
9057;DHT22;4563;54.756;9.400;2022-09-27T08:37:32;14.00;78.40
9057;DHT22;4563;54.756;9.400;2022-09-27T08:40:00;14.00;78.40
9057;DHT22;4563;54.756;9.400;2022-09-27T08:42:34;14.10;78.60
9057;DHT22;4563;54.756;9.400;2022-09-27T08:45:12;14.10;78.60
9057;DHT22;4563;54.756;9.400;2022-09-27T08:47:44;14.10;78.60
9057;DHT22;4563;54.756;9.400;2022-09-27T08:50:21;14.10;79.30
9057;DHT22;4563;54.756;9.400;2022-09-27T08:52:54;14.10;78.50
9057;DHT22;4563;54.756;9.400;2022-09-27T08:55:27;14.10;78.60
9057;DHT22;4563;54.756;9.400;2022-09-27T08:57:57;14.10;78.60
9057;DHT22;4563;54.756;9.400;2022-09-27T09:00:28;14.10;78.60
9057;DHT22;4563;54.756;9.400;2022-09-27T09:02:55;14.10;78.60
9057;DHT22;4563;54.756;9.400;2022-09-27T09:05:29;14.10;78.60
9057;DHT22;4563;54.756;9.400;2022-09-27T09:08:18;14.10;78.50
9057;DHT22;4563;54.756;9.400;2022-09-27T09:10:52;14.20;78.40
9057;DHT22;4563;54.756;9.400;2022-09-27T09:13:52;14.10;78.60
9057;DHT22;4563;54.756;9.400;2022-09-27T09:16:34;14.10;78.50
9057;DHT22;4563;54.756;9.400;2022-09-27T09:19:18;14.10;78.50
9057;DHT22;4563;54.756;9.400;2022-09-27T09:21:57;14.20;78.60
9057;DHT22;4563;54.756;9.400;2022-09-27T09:24:33;14.20;78.60
9057;DHT22;4563;54.756;9.400;2022-09-27T09:27:10;14.20;78.50
9057;DHT22;4563;54.756;9.400;2022-09-27T09:32:40;14.20;78.40
9057;DHT22;4563;54.756;9.400;2022-09-27T09:35:13;14.20;78.40
9057;DHT22;4563;54.756;9.400;2022-09-27T09:37:45;14.20;78.50
9057;DHT22;4563;54.756;9.400;2022-09-27T09:40:18;14.20;78.50
9057;DHT22;4563;54.756;9.400;2022-09-27T09:42:50;14.20;78.40
9057;DHT22;4563;54.756;9.400;2022-09-27T09:45:23;14.20;78.40
9057;DHT22;4563;54.756;9.400;2022-09-27T09:47:58;14.20;78.40
9057;DHT22;4563;54.756;9.400;2022-09-27T09:50:29;14.20;78.30
9057;DHT22;4563;54.756;9.400;2022-09-27T09:53:02;14.30;78.40
9057;DHT22;4563;54.756;9.400;2022-09-27T09:55:33;14.20;78.30
9057;DHT22;4563;54.756;9.400;2022-09-27T09:58:09;14.20;78.30
9057;DHT22;4563;54.756;9.400;2022-09-27T10:00:39;14.30;78.40
9057;DHT22;4563;54.756;9.400;2022-09-27T10:03:08;14.20;78.30
9057;DHT22;4563;54.756;9.400;2022-09-27T10:05:35;14.20;78.20
9057;DHT22;4563;54.756;9.400;2022-09-27T10:08:04;14.30;78.30
9057;DHT22;4563;54.756;9.400;2022-09-27T10:10:33;14.30;78.30
9057;DHT22;4563;54.756;9.400;2022-09-27T10:13:02;14.30;78.30
9057;DHT22;4563;54.756;9.400;2022-09-27T10:15:31;14.30;78.30
9057;DHT22;4563;54.756;9.400;2022-09-27T10:18:00;14.20;78.30
9057;DHT22;4563;54.756;9.400;2022-09-27T10:20:34;14.30;78.30
9057;DHT22;4563;54.756;9.400;2022-09-27T10:23:05;14.30;78.20
9057;DHT22;4563;54.756;9.400;2022-09-27T10:25:46;14.20;78.20
9057;DHT22;4563;54.756;9.400;2022-09-27T10:28:35;14.20;78.00
9057;DHT22;4563;54.756;9.400;2022-09-27T10:31:04;14.20;77.90
9057;DHT22;4563;54.756;9.400;2022-09-27T10:33:34;14.20;78.20
9057;DHT22;4563;54.756;9.400;2022-09-27T10:36:22;14.20;78.20
9057;DHT22;4563;54.756;9.400;2022-09-27T10:38:52;14.20;77.90
9057;DHT22;4563;54.756;9.400;2022-09-27T10:41:25;14.20;78.20
9057;DHT22;4563;54.756;9.400;2022-09-27T10:43:53;14.20;78.20
9057;DHT22;4563;54.756;9.400;2022-09-27T10:46:25;14.20;78.20
9057;DHT22;4563;54.756;9.400;2022-09-27T10:49:09;14.20;78.10
9057;DHT22;4563;54.756;9.400;2022-09-27T10:51:42;14.20;78.00
9057;DHT22;4563;54.756;9.400;2022-09-27T10:54:18;14.20;78.10
9057;DHT22;4563;54.756;9.400;2022-09-27T10:56:54;14.20;78.10
9057;DHT22;4563;54.756;9.400;2022-09-27T10:59:23;14.20;78.10
9057;DHT22;4563;54.756;9.400;2022-09-27T11:01:51;14.20;78.20
9057;DHT22;4563;54.756;9.400;2022-09-27T11:04:22;14.20;78.20
9057;DHT22;4563;54.756;9.400;2022-09-27T11:07:06;14.20;78.20
9057;DHT22;4563;54.756;9.400;2022-09-27T11:09:49;14.30;78.10
9057;DHT22;4563;54.756;9.400;2022-09-27T11:12:17;14.20;78.20
9057;DHT22;4563;54.756;9.400;2022-09-27T11:14:51;14.20;78.30
9057;DHT22;4563;54.756;9.400;2022-09-27T11:17:25;14.20;78.20
9057;DHT22;4563;54.756;9.400;2022-09-27T11:20:14;14.20;78.30
9057;DHT22;4563;54.756;9.400;2022-09-27T11:23:08;14.30;78.10
9057;DHT22;4563;54.756;9.400;2022-09-27T11:25:42;14.30;78.20
9057;DHT22;4563;54.756;9.400;2022-09-27T11:28:21;14.20;78.30
9057;DHT22;4563;54.756;9.400;2022-09-27T11:31:01;14.30;78.30
9057;DHT22;4563;54.756;9.400;2022-09-27T11:33:48;14.30;78.40
9057;DHT22;4563;54.756;9.400;2022-09-27T11:36:26;14.30;78.30
9057;DHT22;4563;54.756;9.400;2022-09-27T11:39:03;14.30;78.50
9057;DHT22;4563;54.756;9.400;2022-09-27T11:41:44;14.30;78.40
9057;DHT22;4563;54.756;9.400;2022-09-27T11:44:26;14.30;78.40
9057;DHT22;4563;54.756;9.400;2022-09-27T11:47:02;14.20;78.30
9057;DHT22;4563;54.756;9.400;2022-09-27T11:50:01;14.30;78.40
9057;DHT22;4563;54.756;9.400;2022-09-27T11:52:40;14.30;78.40
9057;DHT22;4563;54.756;9.400;2022-09-27T11:55:21;14.30;78.50
9057;DHT22;4563;54.756;9.400;2022-09-27T11:57:59;14.30;78.50
9057;DHT22;4563;54.756;9.400;2022-09-27T12:00:40;14.30;78.60
9057;DHT22;4563;54.756;9.400;2022-09-27T12:03:50;14.30;78.70
9057;DHT22;4563;54.756;9.400;2022-09-27T12:06:26;14.30;78.40
9057;DHT22;4563;54.756;9.400;2022-09-27T12:09:02;14.30;78.80
9057;DHT22;4563;54.756;9.400;2022-09-27T12:11:36;14.40;78.80
9057;DHT22;4563;54.756;9.400;2022-09-27T12:14:08;14.40;78.90
9057;DHT22;4563;54.756;9.400;2022-09-27T12:16:38;14.40;79.00
9057;DHT22;4563;54.756;9.400;2022-09-27T12:19:11;14.40;79.00
9057;DHT22;4563;54.756;9.400;2022-09-27T12:21:41;14.40;79.00
9057;DHT22;4563;54.756;9.400;2022-09-27T12:24:17;14.50;79.10
9057;DHT22;4563;54.756;9.400;2022-09-27T12:26:48;14.50;79.10
9057;DHT22;4563;54.756;9.400;2022-09-27T12:29:21;14.50;79.20
9057;DHT22;4563;54.756;9.400;2022-09-27T12:31:55;14.50;79.20
9057;DHT22;4563;54.756;9.400;2022-09-27T12:34:29;14.60;79.40
9057;DHT22;4563;54.756;9.400;2022-09-27T12:37:03;14.60;79.40
9057;DHT22;4563;54.756;9.400;2022-09-27T12:39:40;14.60;79.40
9057;DHT22;4563;54.756;9.400;2022-09-27T12:42:16;14.60;79.20
9057;DHT22;4563;54.756;9.400;2022-09-27T12:44:46;14.70;79.20
9057;DHT22;4563;54.756;9.400;2022-09-27T12:47:22;14.70;79.20
9057;DHT22;4563;54.756;9.400;2022-09-27T12:50:00;14.80;79.30
9057;DHT22;4563;54.756;9.400;2022-09-27T12:52:32;14.80;79.20
9057;DHT22;4563;54.756;9.400;2022-09-27T12:55:17;14.80;79.30
9057;DHT22;4563;54.756;9.400;2022-09-27T12:58:06;14.80;79.30
9057;DHT22;4563;54.756;9.400;2022-09-27T13:00:43;14.90;79.30
9057;DHT22;4563;54.756;9.400;2022-09-27T13:06:32;14.90;78.40
9057;DHT22;4563;54.756;9.400;2022-09-27T13:09:25;14.90;78.80
9057;DHT22;4563;54.756;9.400;2022-09-27T13:12:01;14.90;78.40
9057;DHT22;4563;54.756;9.400;2022-09-27T13:14:43;14.90;78.60
9057;DHT22;4563;54.756;9.400;2022-09-27T13:17:31;15.00;78.50
9057;DHT22;4563;54.756;9.400;2022-09-27T13:19:58;15.00;78.10
9057;DHT22;4563;54.756;9.400;2022-09-27T13:22:39;15.00;78.50
9057;DHT22;4563;54.756;9.400;2022-09-27T13:28:31;15.00;77.80
9057;DHT22;4563;54.756;9.400;2022-09-27T13:31:02;15.00;77.90
9057;DHT22;4563;54.756;9.400;2022-09-27T13:33:41;15.00;78.30
9057;DHT22;4563;54.756;9.400;2022-09-27T13:36:29;15.10;78.00
9057;DHT22;4563;54.756;9.400;2022-09-27T13:39:19;15.10;77.70
9057;DHT22;4563;54.756;9.400;2022-09-27T13:42:20;15.20;77.90
9057;DHT22;4563;54.756;9.400;2022-09-27T13:45:12;15.20;77.80
9057;DHT22;4563;54.756;9.400;2022-09-27T13:47:46;15.30;78.30
9057;DHT22;4563;54.756;9.400;2022-09-27T13:50:19;15.30;78.30
9057;DHT22;4563;54.756;9.400;2022-09-27T13:52:58;15.40;78.30
9057;DHT22;4563;54.756;9.400;2022-09-27T13:55:44;15.40;78.70
9057;DHT22;4563;54.756;9.400;2022-09-27T13:58:23;15.40;77.50
9057;DHT22;4563;54.756;9.400;2022-09-27T14:00:57;15.50;77.80
9057;DHT22;4563;54.756;9.400;2022-09-27T14:03:33;15.50;77.80
9057;DHT22;4563;54.756;9.400;2022-09-27T14:06:44;15.50;77.40
9057;DHT22;4563;54.756;9.400;2022-09-27T14:09:17;15.60;77.60
9057;DHT22;4563;54.756;9.400;2022-09-27T14:11:49;15.50;77.40
9057;DHT22;4563;54.756;9.400;2022-09-27T14:14:21;15.60;77.40
9057;DHT22;4563;54.756;9.400;2022-09-27T14:16:50;15.60;77.20
9057;DHT22;4563;54.756;9.400;2022-09-27T14:19:22;15.60;77.10
9057;DHT22;4563;54.756;9.400;2022-09-27T14:22:10;15.70;77.10
9057;DHT22;4563;54.756;9.400;2022-09-27T14:24:45;15.70;76.70
9057;DHT22;4563;54.756;9.400;2022-09-27T14:27:15;15.70;76.70
9057;DHT22;4563;54.756;9.400;2022-09-27T14:29:45;15.70;76.70
9057;DHT22;4563;54.756;9.400;2022-09-27T14:32:14;15.70;76.70
9057;DHT22;4563;54.756;9.400;2022-09-27T14:34:43;15.70;76.50
9057;DHT22;4563;54.756;9.400;2022-09-27T14:37:23;15.80;76.50
9057;DHT22;4563;54.756;9.400;2022-09-27T14:39:55;15.80;76.00
9057;DHT22;4563;54.756;9.400;2022-09-27T14:42:24;15.80;76.10
9057;DHT22;4563;54.756;9.400;2022-09-27T14:44:54;15.80;76.10
9057;DHT22;4563;54.756;9.400;2022-09-27T14:47:23;15.80;76.00
9057;DHT22;4563;54.756;9.400;2022-09-27T14:49:54;15.80;75.80
9057;DHT22;4563;54.756;9.400;2022-09-27T14:52:22;15.80;75.80
9057;DHT22;4563;54.756;9.400;2022-09-27T14:54:57;15.80;75.70
9057;DHT22;4563;54.756;9.400;2022-09-27T14:57:25;15.80;75.50
9057;DHT22;4563;54.756;9.400;2022-09-27T14:59:52;15.80;75.50
9057;DHT22;4563;54.756;9.400;2022-09-27T15:02:23;15.80;75.30
9057;DHT22;4563;54.756;9.400;2022-09-27T15:04:52;15.80;75.30
9057;DHT22;4563;54.756;9.400;2022-09-27T15:07:20;15.80;75.20
9057;DHT22;4563;54.756;9.400;2022-09-27T15:09:48;15.70;75.00
9057;DHT22;4563;54.756;9.400;2022-09-27T15:12:22;15.70;74.80
9057;DHT22;4563;54.756;9.400;2022-09-27T15:14:52;15.70;75.00
9057;DHT22;4563;54.756;9.400;2022-09-27T15:17:20;15.70;74.70
9057;DHT22;4563;54.756;9.400;2022-09-27T15:19:58;15.70;74.60
9057;DHT22;4563;54.756;9.400;2022-09-27T15:22:40;15.70;74.40
9057;DHT22;4563;54.756;9.400;2022-09-27T15:25:17;15.70;74.50
9057;DHT22;4563;54.756;9.400;2022-09-27T15:27:47;15.60;74.50
9057;DHT22;4563;54.756;9.400;2022-09-27T15:30:23;15.60;74.50
9057;DHT22;4563;54.756;9.400;2022-09-27T15:32:52;15.70;74.60
9057;DHT22;4563;54.756;9.400;2022-09-27T15:35:27;15.70;74.60
9057;DHT22;4563;54.756;9.400;2022-09-27T15:38:11;15.60;74.50
9057;DHT22;4563;54.756;9.400;2022-09-27T15:40:58;15.60;74.30
9057;DHT22;4563;54.756;9.400;2022-09-27T15:43:28;15.60;74.30
9057;DHT22;4563;54.756;9.400;2022-09-27T15:45:57;15.60;74.50
9057;DHT22;4563;54.756;9.400;2022-09-27T15:48:26;15.50;74.30
9057;DHT22;4563;54.756;9.400;2022-09-27T15:50:55;15.60;74.50
9057;DHT22;4563;54.756;9.400;2022-09-27T15:53:42;15.50;74.20
9057;DHT22;4563;54.756;9.400;2022-09-27T15:56:13;15.50;73.90
9057;DHT22;4563;54.756;9.400;2022-09-27T15:58:40;15.50;74.30
9057;DHT22;4563;54.756;9.400;2022-09-27T16:01:18;15.50;74.30
9057;DHT22;4563;54.756;9.400;2022-09-27T16:03:46;15.50;74.10
9057;DHT22;4563;54.756;9.400;2022-09-27T16:06:15;15.40;74.20
9057;DHT22;4563;54.756;9.400;2022-09-27T16:08:43;15.50;74.20
9057;DHT22;4563;54.756;9.400;2022-09-27T16:11:13;15.40;74.10
9057;DHT22;4563;54.756;9.400;2022-09-27T16:13:41;15.40;74.10
9057;DHT22;4563;54.756;9.400;2022-09-27T16:16:14;15.40;74.10
9057;DHT22;4563;54.756;9.400;2022-09-27T16:18:43;15.30;73.90
9057;DHT22;4563;54.756;9.400;2022-09-27T16:21:10;15.30;73.90
9057;DHT22;4563;54.756;9.400;2022-09-27T16:23:39;15.30;73.90
9057;DHT22;4563;54.756;9.400;2022-09-27T16:26:06;15.30;73.80
9057;DHT22;4563;54.756;9.400;2022-09-27T16:28:33;15.30;73.80
9057;DHT22;4563;54.756;9.400;2022-09-27T16:31:02;15.30;73.80
9057;DHT22;4563;54.756;9.400;2022-09-27T16:33:29;15.20;73.70
9057;DHT22;4563;54.756;9.400;2022-09-27T16:35:57;15.20;73.70
9057;DHT22;4563;54.756;9.400;2022-09-27T16:38:26;15.20;73.70
9057;DHT22;4563;54.756;9.400;2022-09-27T16:41:00;15.20;73.70
9057;DHT22;4563;54.756;9.400;2022-09-27T16:43:28;15.20;73.60
9057;DHT22;4563;54.756;9.400;2022-09-27T16:46:03;15.10;73.60
9057;DHT22;4563;54.756;9.400;2022-09-27T16:48:33;15.10;73.60